Time;durP1;ratioP1;P1;durP2;ratioP2;P2;SDS_P1;SDS_P2;PMS_P1;PMS_P2;Temp;Humidity;BMP_temperature;BMP_pressure;BME280_temperature;BME280_humidity;BME280_pressure;Samples;Min_cycle;Max_cycle;Signal;HPM_P1;HPM_P2
2024/01/03 00:01:34;;;;;;;1.53;0.50;;;;;;;11.48;78.28;98564.00;4996471;28;20220;-79
2024/01/03 00:04:25;;;;;;;1.50;0.57;;;;;;;11.44;77.95;98557.44;5016870;28;20660;-78
2024/01/03 00:07:19;;;;;;;2.43;0.70;;;;;;;11.40;77.33;98550.09;5002102;28;20216;-79
2024/01/03 00:14:13;;;;;;;1.33;0.60;;;;;;;11.37;76.74;98566.41;5011729;28;20213;-78
2024/01/03 00:21:13;;;;;;;2.60;0.40;;;;;;;11.36;74.65;98586.81;4903974;29;20234;-79
2024/01/03 00:28:32;;;;;;;4.27;0.83;;;;;;;11.32;79.66;98569.66;4863626;29;20335;-79
2024/01/03 00:31:41;;;;;;;2.10;0.70;;;;;;;11.20;80.33;98579.19;4903931;29;20269;-78
2024/01/03 00:34:40;;;;;;;2.80;0.77;;;;;;;11.08;81.07;98594.06;4927539;29;20303;-78
2024/01/03 00:37:48;;;;;;;3.60;0.90;;;;;;;11.03;80.91;98594.63;4948439;28;20228;-78
2024/01/03 00:44:31;;;;;;;1.40;0.40;;;;;;;10.96;80.67;98614.19;4931359;28;20290;-78
2024/01/03 00:47:42;;;;;;;2.57;0.43;;;;;;;10.90;81.05;98629.88;5011147;28;20224;-78
2024/01/03 00:50:18;;;;;;;3.03;0.70;;;;;;;10.89;81.57;98624.75;4991664;28;20213;-79
2024/01/03 00:52:59;;;;;;;1.80;0.50;;;;;;;10.94;81.79;98635.59;4991382;28;20237;-78
2024/01/03 00:59:13;;;;;;;2.73;0.73;;;;;;;11.00;83.02;98640.09;4991413;28;20205;-78
2024/01/03 01:09:21;;;;;;;2.60;0.60;;;;;;;10.94;88.78;98641.69;4983864;28;20263;-78
2024/01/03 01:12:03;;;;;;;2.13;0.47;;;;;;;10.93;89.02;98628.63;4991985;28;20264;-78
2024/01/03 01:14:34;;;;;;;3.23;0.60;;;;;;;10.94;88.46;98633.75;4990471;28;20206;-78
2024/01/03 01:17:31;;;;;;;3.03;0.97;;;;;;;10.92;88.25;98633.13;4988166;28;20202;-78
2024/01/03 01:20:16;;;;;;;3.53;0.60;;;;;;;10.88;87.97;98637.19;4989391;28;20213;-80
2024/01/03 01:22:50;;;;;;;2.87;0.70;;;;;;;10.88;87.88;98660.22;4989066;28;20304;-78
2024/01/03 01:28:28;;;;;;;4.67;0.73;;;;;;;10.84;87.30;98659.78;4989285;28;20212;-78
2024/01/03 01:31:26;;;;;;;1.23;0.60;;;;;;;10.80;87.32;98661.19;4975981;28;20660;-78
2024/01/03 01:33:56;;;;;;;4.03;0.70;;;;;;;10.80;86.34;98671.81;4991318;28;20206;-78
2024/01/03 01:36:46;;;;;;;2.03;0.80;;;;;;;10.82;86.02;98671.59;4989734;28;20205;-78
2024/01/03 01:39:33;;;;;;;3.80;0.63;;;;;;;10.84;85.34;98675.69;4988921;28;20212;-78
2024/01/03 01:42:08;;;;;;;6.07;0.60;;;;;;;10.89;84.59;98691.03;4990745;28;20210;-78
2024/01/03 01:44:36;;;;;;;4.13;0.90;;;;;;;10.88;84.25;98682.25;4986535;28;20212;-78
2024/01/03 01:47:14;;;;;;;4.13;0.63;;;;;;;10.91;84.12;98679.22;4987990;28;20211;-78
2024/01/03 01:50:00;;;;;;;4.40;0.80;;;;;;;10.98;84.28;98686.41;4971509;28;20680;-79
2024/01/03 01:56:16;;;;;;;8.10;1.10;;;;;;;10.99;84.00;98688.88;4983738;28;20284;-78
2024/01/03 01:59:09;;;;;;;4.30;0.73;;;;;;;11.01;83.95;98699.25;4946046;28;20233;-80
2024/01/03 02:05:10;;;;;;;3.80;0.93;;;;;;;10.99;83.34;98694.19;4856759;29;20338;-78
2024/01/03 02:08:17;;;;;;;5.30;0.90;;;;;;;10.96;83.15;98696.38;4886406;29;20282;-78
2024/01/03 02:10:45;;;;;;;5.00;0.97;;;;;;;11.01;82.68;98700.09;4883754;29;20210;-78
2024/01/03 02:13:17;;;;;;;3.70;0.83;;;;;;;11.03;82.11;98687.44;4883513;29;20918;-81
2024/01/03 02:15:46;;;;;;;2.73;0.60;;;;;;;11.04;82.00;98698.88;4909052;28;20204;-78
2024/01/03 02:18:30;;;;;;;2.93;0.60;;;;;;;10.99;82.33;98693.34;4942595;28;20242;-79
2024/01/03 02:21:03;;;;;;;2.80;0.63;;;;;;;11.02;82.83;98695.59;4945279;28;20211;-78
2024/01/03 02:23:48;;;;;;;3.20;0.70;;;;;;;11.04;83.32;98693.56;4943404;28;20237;-79
2024/01/03 02:26:20;;;;;;;4.37;0.70;;;;;;;11.03;84.33;98691.94;4941849;28;20661;-78
2024/01/03 02:29:07;;;;;;;3.90;0.70;;;;;;;11.02;85.31;98690.28;4946411;28;20209;-79
2024/01/03 02:31:44;;;;;;;6.10;1.07;;;;;;;11.03;85.92;98705.19;4990461;28;20213;-78
2024/01/03 02:34:21;;;;;;;7.53;0.83;;;;;;;11.09;86.26;98701.75;4991122;28;20380;-79
2024/01/03 02:40:16;;;;;;;6.53;0.93;;;;;;;11.06;90.85;98723.38;4969527;28;20218;-79
2024/01/03 02:42:51;;;;;;;3.77;1.10;;;;;;;11.06;92.28;98712.78;4972286;28;20215;-78
2024/01/03 02:45:53;;;;;;;4.37;0.80;;;;;;;10.98;91.21;98697.00;4989679;28;20321;-78
2024/01/03 03:11:08;;;;;;;7.70;0.97;;;;;;;10.67;81.93;98714.09;4874087;29;20216;-78
2024/01/03 03:14:03;;;;;;;5.13;0.60;;;;;;;10.66;81.53;98696.56;4909423;29;20248;-78
2024/01/03 03:16:54;;;;;;;5.37;0.80;;;;;;;10.66;81.96;98699.19;4909199;29;20236;-78
2024/01/03 03:19:45;;;;;;;6.03;0.63;;;;;;;10.64;81.57;98688.00;4910176;29;20692;-79
2024/01/03 03:22:20;;;;;;;3.83;0.70;;;;;;;10.62;81.55;98692.66;4912284;29;20295;-78
2024/01/03 03:24:52;;;;;;;4.93;0.87;;;;;;;10.62;81.53;98700.63;4911946;29;20228;-78
2024/01/03 03:38:37;;;;;;;;;;;;;;;;;;;;;
2024/01/03 03:42:18;;;;;;;5.37;0.90;;;;;;;10.62;82.02;98699.78;4850444;28;20217;-78
2024/01/03 04:03:59;;;;;;;6.00;1.27;;;;;;;10.55;82.45;98705.84;4840397;29;20355;-78
2024/01/03 04:07:31;;;;;;;4.17;0.87;;;;;;;10.52;82.66;98718.66;4873702;28;20230;-78
2024/01/03 04:13:38;;;;;;;7.20;1.00;;;;;;;10.69;82.78;98717.38;4891627;29;20243;-79
2024/01/03 04:16:26;;;;;;;7.30;1.37;;;;;;;10.78;82.82;98721.53;4944374;28;20604;-78
2024/01/03 04:18:57;;;;;;;8.70;1.83;;;;;;;10.81;83.11;98715.88;4989930;28;20663;-78
2024/01/03 04:28:33;;;;;;;;;;;;;;;;;;;;;
2024/01/03 04:35:04;;;;;;;9.77;2.03;;;;;;;10.82;81.52;98725.44;4990275;28;20733;-79
2024/01/03 04:52:48;;;;;;;10.23;1.60;;;;;;;10.87;82.10;98732.81;4979443;28;20224;-79
2024/01/03 04:55:30;;;;;;;9.03;2.43;;;;;;;10.93;81.21;98730.22;4991137;28;20343;-78
2024/01/03 04:58:11;;;;;;;10.13;1.43;;;;;;;10.94;79.55;98721.25;4990540;28;20739;-78
2024/01/03 05:00:40;;;;;;;11.13;1.50;;;;;;;10.93;77.64;98719.63;4988932;28;20206;-79
2024/01/03 05:03:11;;;;;;;7.03;1.27;;;;;;;10.91;77.19;98712.84;4987603;28;20221;-79
2024/01/03 05:05:42;;;;;;;14.97;3.03;;;;;;;10.90;76.86;98709.41;4987039;28;20207;-78
2024/01/03 05:11:45;;;;;;;11.97;1.60;;;;;;;11.00;76.83;98724.13;4983115;28;20264;-79
2024/01/03 05:14:20;;;;;;;10.63;1.70;;;;;;;10.99;77.25;98711.91;4990112;28;20258;-79
2024/01/03 05:16:59;;;;;;;9.80;1.97;;;;;;;10.98;77.67;98726.19;4988729;28;20293;-78
2024/01/03 05:19:36;;;;;;;9.17;1.60;;;;;;;10.98;77.62;98712.94;4990753;28;20212;-79
2024/01/03 05:22:17;;;;;;;11.30;2.13;;;;;;;10.94;78.21;98717.78;4988650;28;20213;-78
2024/01/03 05:24:55;;;;;;;15.20;2.70;;;;;;;10.91;78.36;98726.94;4990104;28;20233;-79
2024/01/03 05:34:26;;;;;;;10.20;1.97;;;;;;;10.89;76.44;98728.97;4951138;28;20240;-79
2024/01/03 05:37:02;;;;;;;11.20;1.97;;;;;;;10.94;76.33;98737.16;4972892;28;20233;-78
2024/01/03 05:39:33;;;;;;;10.67;1.47;;;;;;;10.88;75.91;98743.25;4969201;28;20826;-78
2024/01/03 05:42:15;;;;;;;5.67;1.70;;;;;;;10.88;76.02;98742.44;4985986;28;20206;-79
2024/01/03 05:44:56;;;;;;;10.97;1.60;;;;;;;10.91;76.44;98742.84;4989653;28;20671;-78
2024/01/03 05:47:27;;;;;;;6.23;1.37;;;;;;;10.96;76.70;98736.97;4987965;28;20213;-78
2024/01/03 05:50:04;;;;;;;7.93;1.70;;;;;;;10.97;76.63;98729.84;4990936;28;20240;-78
2024/01/03 05:52:38;;;;;;;12.60;1.90;;;;;;;10.94;76.88;98745.13;4969478;28;20224;-78
2024/01/03 05:55:18;;;;;;;10.07;1.63;;;;;;;10.96;77.08;98739.63;4989832;28;20233;-79
2024/01/03 05:59:06;;;;;;;10.97;1.90;;;;;;;10.92;77.37;98739.19;4945505;28;20210;-78
2024/01/03 06:04:56;;;;;;;12.00;1.40;;;;;;;10.91;77.60;98742.84;4992036;28;20216;-78
2024/01/03 06:07:54;;;;;;;7.93;1.67;;;;;;;10.89;77.38;98731.63;4982124;28;20221;-78
2024/01/03 06:11:08;;;;;;;12.77;2.50;;;;;;;10.87;77.80;98719.56;4988136;28;20295;-78
2024/01/03 06:13:47;;;;;;;8.87;2.07;;;;;;;10.89;77.83;98728.97;4985135;28;20238;-78
2024/01/03 06:16:19;;;;;;;9.00;1.80;;;;;;;10.88;77.81;98710.59;4987653;28;20202;-78
2024/01/03 06:18:49;;;;;;;14.17;1.97;;;;;;;10.89;77.85;98722.84;4989842;28;20217;-79
2024/01/03 06:21:24;;;;;;;10.67;2.37;;;;;;;10.93;77.82;98716.97;4989973;28;20666;-79
2024/01/03 06:23:59;;;;;;;10.40;1.73;;;;;;;10.92;77.62;98717.97;4986534;28;20229;-78
2024/01/03 06:29:51;;;;;;;10.40;1.83;;;;;;;10.88;77.56;98722.03;5101145;27;20565;-79
2024/01/03 06:32:20;;;;;;;11.20;1.53;;;;;;;10.84;77.53;98714.63;5100672;28;20269;-78
2024/01/03 06:34:59;;;;;;;11.60;1.33;;;;;;;10.86;77.26;98700.19;5095899;28;20230;-78
2024/01/03 06:38:16;;;;;;;8.23;1.90;;;;;;;10.92;77.33;98695.94;5092089;28;20232;-78
2024/01/03 06:45:31;;;;;;;10.33;1.60;;;;;;;10.93;76.88;98702.88;4955916;28;20218;-78
2024/01/03 06:48:58;;;;;;;;;;;;;;;;;;;;;
2024/01/03 06:52:07;;;;;;;6.70;1.47;;;;;;;10.89;77.07;98693.69;4845915;29;20223;-78
2024/01/03 06:59:05;;;;;;;7.20;1.40;;;;;;;10.94;77.11;98694.75;4903350;29;20232;-78
2024/01/03 07:06:16;;;;;;;9.60;1.60;;;;;;;10.94;77.45;98693.91;4828738;29;20591;-78
2024/01/03 07:12:04;;;;;;;8.27;1.00;;;;;;;10.98;76.78;98699.66;4779495;29;20233;-77
2024/01/03 07:19:25;;;;;;;5.00;0.70;;;;;;;10.91;77.56;98692.47;4840336;29;20220;-78
2024/01/03 07:55:28;;;;;;;7.70;1.10;;;;;;;11.22;79.93;98726.56;4871025;29;20270;-77
2024/01/03 08:09:58;;;;;;;1.80;0.50;;;;;;;11.23;78.41;98719.41;4868639;29;21084;-77
2024/01/03 08:16:02;;;;;;;1.83;0.60;;;;;;;11.32;78.37;98735.00;4928625;28;20221;-76
2024/01/03 08:33:08;;;;;;;4.90;0.73;;;;;;;11.60;81.31;98742.91;5024395;28;20209;-77
2024/01/03 08:35:48;;;;;;;4.03;0.63;;;;;;;11.62;82.29;98748.81;5060624;28;20256;-77
2024/01/03 08:39:06;;;;;;;5.33;0.80;;;;;;;11.55;82.63;98750.63;4957834;28;20218;-77
2024/01/03 08:41:53;;;;;;;5.33;0.50;;;;;;;11.53;82.96;98750.00;4994792;28;20215;-77
2024/01/03 08:47:43;;;;;;;4.63;0.67;;;;;;;11.47;82.95;98737.53;4999984;28;20348;-77
2024/01/03 08:50:14;;;;;;;5.77;1.03;;;;;;;11.46;82.66;98750.97;4999985;28;20221;-77
2024/01/03 08:56:17;;;;;;;3.67;0.57;;;;;;;11.49;82.68;98750.59;4996892;28;20476;-78
2024/01/03 09:02:04;;;;;;;3.50;0.67;;;;;;;11.50;82.92;98761.03;4997929;28;20224;-68
2024/01/03 09:04:37;;;;;;;3.33;0.90;;;;;;;11.52;82.73;98769.59;4996872;28;20300;-67
2024/01/03 09:07:12;;;;;;;1.73;0.50;;;;;;;11.58;82.06;98771.47;4996545;28;20210;-68
2024/01/03 09:09:44;;;;;;;2.90;0.60;;;;;;;11.66;81.90;98765.19;5054462;28;21071;-66
2024/01/03 09:12:18;;;;;;;3.03;0.50;;;;;;;11.82;81.13;98761.41;5053284;28;20207;-67
2024/01/03 09:14:50;;;;;;;2.90;0.83;;;;;;;11.87;80.70;98766.97;5057932;28;20322;-67
2024/01/03 09:17:19;;;;;;;3.77;0.63;;;;;;;11.86;80.09;98757.38;5055893;28;20207;-67
2024/01/03 09:19:49;;;;;;;3.67;0.70;;;;;;;11.94;79.97;98762.50;5055581;28;20212;-67
2024/01/03 09:22:18;;;;;;;4.10;0.60;;;;;;;11.94;79.76;98770.47;5053952;28;20299;-67
2024/01/03 09:24:52;;;;;;;2.93;0.53;;;;;;;11.78;80.20;98760.19;5054863;28;20256;-67
2024/01/03 09:27:24;;;;;;;2.67;0.70;;;;;;;11.74;80.45;98759.72;5056119;28;20205;-67
2024/01/03 09:30:14;;;;;;;4.13;1.20;;;;;;;11.76;80.83;98768.34;5055333;28;20228;-67
2024/01/03 09:33:14;;;;;;;3.67;0.67;;;;;;;11.94;79.52;98781.91;4958462;28;20214;-67
2024/01/03 09:35:56;;;;;;;2.73;0.70;;;;;;;12.02;78.59;98780.94;5049160;28;21140;-67
2024/01/03 09:39:34;;;;;;;5.27;1.07;;;;;;;12.03;78.66;98790.53;5055690;28;20304;-66
2024/01/03 09:42:07;;;;;;;3.00;0.83;;;;;;;11.92;77.92;98783.94;5041522;28;20210;-68
2024/01/03 09:44:46;;;;;;;4.07;0.70;;;;;;;11.86;77.82;98794.53;5052009;28;20204;-71
2024/01/03 09:47:22;;;;;;;6.47;1.27;;;;;;;11.88;77.62;98789.81;5055838;28;20199;-68
2024/01/03 09:49:55;;;;;;;3.13;0.70;;;;;;;11.89;77.27;98788.81;5057028;28;20337;-68
2024/01/03 09:52:29;;;;;;;5.90;1.23;;;;;;;11.89;76.82;98783.50;5056208;28;20231;-67
2024/01/03 09:55:07;;;;;;;6.80;1.00;;;;;;;11.85;76.30;98795.56;5055217;28;20222;-67
2024/01/03 09:57:38;;;;;;;6.97;1.43;;;;;;;11.85;76.68;98788.41;5053763;28;20208;-68
2024/01/03 10:00:14;;;;;;;5.03;1.03;;;;;;;11.93;76.27;98793.56;5055022;28;20210;-68
2024/01/03 10:02:45;;;;;;;3.93;0.90;;;;;;;12.05;75.78;98794.59;5052863;28;20273;-67
2024/01/03 10:05:29;;;;;;;5.13;1.03;;;;;;;12.17;75.29;98789.56;5054989;28;20672;-66
2024/01/03 10:08:15;;;;;;;4.50;1.00;;;;;;;12.31;74.83;98793.09;5055306;28;20200;-68
2024/01/03 10:10:47;;;;;;;4.40;1.20;;;;;;;13.04;73.35;98783.38;5054053;28;20220;-67
2024/01/03 10:13:36;;;;;;;4.50;1.10;;;;;;;14.42;69.66;98793.78;5054985;28;20265;-67
2024/01/03 10:16:39;;;;;;;4.93;1.17;;;;;;;17.81;57.25;98783.16;5050199;28;20215;-67
2024/01/03 10:19:13;;;;;;;3.70;1.10;;;;;;;19.88;49.35;98781.44;5054268;28;20211;-68
2024/01/03 10:21:48;;;;;;;5.97;1.17;;;;;;;20.78;45.83;98784.66;5056788;28;20246;-67
2024/01/03 10:24:24;;;;;;;2.83;1.00;;;;;;;19.65;47.15;98792.44;5054330;28;20224;-68
2024/01/03 10:26:55;;;;;;;4.83;0.77;;;;;;;18.31;49.90;98784.19;5057111;28;20214;-67
2024/01/03 10:29:24;;;;;;;3.30;0.73;;;;;;;16.74;53.26;98787.81;5052611;28;20594;-67
2024/01/03 10:31:53;;;;;;;6.83;1.67;;;;;;;16.19;55.93;98795.91;5053639;28;20204;-67
2024/01/03 10:34:25;;;;;;;5.07;1.17;;;;;;;15.79;57.40;98806.25;5054813;28;20747;-67
2024/01/03 10:36:56;;;;;;;8.80;1.73;;;;;;;15.39;59.41;98793.25;5054911;28;20196;-66
2024/01/03 10:39:35;;;;;;;7.30;1.30;;;;;;;16.04;57.59;98790.97;5054690;28;20257;-67
2024/01/03 10:42:08;;;;;;;4.87;1.03;;;;;;;19.42;49.94;98796.09;5051337;28;20203;-66
2024/01/03 10:44:37;;;;;;;5.20;1.20;;;;;;;22.01;42.39;98796.94;5052677;28;20196;-68
2024/01/03 10:47:07;;;;;;;5.23;1.40;;;;;;;23.01;40.32;98791.31;5055030;28;20204;-67
2024/01/03 10:49:35;;;;;;;3.87;1.10;;;;;;;23.67;39.29;98791.28;5055101;28;20228;-69
2024/01/03 10:52:15;;;;;;;5.05;1.25;;;;;;;23.60;39.32;98781.56;5054699;28;20223;-68
2024/01/03 10:54:54;;;;;;;5.32;1.60;;;;;;;22.67;40.91;98786.38;5057231;28;20204;-70
2024/01/03 10:57:30;;;;;;;8.43;1.30;;;;;;;22.25;42.00;98791.94;5055844;28;20205;-67
2024/01/03 11:00:08;;;;;;;4.72;1.40;;;;;;;21.67;42.59;98779.44;5053782;28;20677;-70
2024/01/03 11:02:50;;;;;;;5.90;1.60;;;;;;;21.84;42.48;98781.97;5057089;28;20207;-68
2024/01/03 11:05:26;;;;;;;7.28;1.60;;;;;;;20.55;44.04;98786.59;5053309;28;20293;-67
2024/01/03 11:08:05;;;;;;;6.22;1.40;;;;;;;19.57;45.83;98784.78;5055104;28;20207;-68
2024/01/03 11:11:00;;;;;;;6.88;1.70;;;;;;;18.57;47.81;98798.13;5054304;28;20289;-65
2024/01/03 11:13:32;;;;;;;6.65;1.58;;;;;;;17.72;50.00;98780.00;5045324;28;20199;-68
2024/01/03 11:16:05;;;;;;;4.20;1.30;;;;;;;17.88;50.59;98802.59;5058586;28;20203;-65
2024/01/03 11:18:51;;;;;;;8.65;2.15;;;;;;;18.58;49.01;98768.34;5053881;28;20285;-68
2024/01/03 11:22:03;;;;;;;;;;;;;;;;;;;;;
2024/01/03 11:25:02;;;;;;;6.43;1.70;;;;;;;19.27;47.10;98765.47;5034816;28;20234;-68
2024/01/03 11:27:35;;;;;;;9.57;2.00;;;;;;;18.66;48.47;98785.94;5056580;28;20204;-66
2024/01/03 11:30:05;;;;;;;7.50;2.13;;;;;;;17.75;50.02;98792.13;5056958;28;20314;-68
2024/01/03 11:32:39;;;;;;;9.10;2.13;;;;;;;17.03;52.57;98791.50;5055379;28;20691;-68
2024/01/03 11:35:15;;;;;;;6.93;1.90;;;;;;;16.50;54.43;98800.25;5056295;28;20203;-69
2024/01/03 11:37:52;;;;;;;9.30;2.40;;;;;;;15.98;56.03;98789.19;5053886;28;20697;-70
2024/01/03 11:40:34;;;;;;;7.20;1.50;;;;;;;15.46;58.20;98784.38;5056782;28;20587;-70
2024/01/03 11:43:12;;;;;;;7.70;1.97;;;;;;;14.90;60.54;98786.06;5056885;28;20213;-69
2024/01/03 11:45:43;;;;;;;8.00;1.77;;;;;;;14.67;62.16;98786.66;5057643;28;20322;-71
2024/01/03 11:48:21;;;;;;;6.73;1.80;;;;;;;14.72;63.20;98787.84;5055547;28;20214;-67
2024/01/03 11:50:53;;;;;;;8.03;1.40;;;;;;;14.86;62.78;98784.88;5055818;28;20234;-68
2024/01/03 11:53:41;;;;;;;5.97;1.37;;;;;;;14.84;62.20;98776.25;5052090;28;20221;-67
2024/01/03 11:56:11;;;;;;;4.23;1.43;;;;;;;14.80;62.60;98774.22;5055397;28;20215;-68
2024/01/03 11:58:43;;;;;;;6.10;1.50;;;;;;;14.67;62.94;98775.97;5057319;28;20211;-69
2024/01/03 12:01:37;;;;;;;8.27;1.57;;;;;;;14.44;63.04;98775.69;5056675;28;20883;-68
2024/01/03 12:07:09;;;;;;;5.47;1.37;;;;;;;14.40;63.66;98755.81;5055881;28;20222;-69
2024/01/03 12:09:41;;;;;;;10.53;1.73;;;;;;;14.41;62.71;98754.81;5049879;28;20226;-68
2024/01/03 12:12:19;;;;;;;10.30;1.63;;;;;;;14.37;62.46;98752.72;5056307;28;20577;-67
2024/01/03 12:15:25;;;;;;;10.57;1.40;;;;;;;14.37;62.90;98742.88;5036190;28;20211;-68
2024/01/03 12:18:28;;;;;;;9.47;1.70;;;;;;;14.37;63.37;98734.06;5055968;28;20211;-68
2024/01/03 12:24:37;;;;;;;8.50;1.87;;;;;;;14.49;63.22;98730.53;5057519;28;20234;-68
2024/01/03 12:27:23;;;;;;;12.23;2.23;;;;;;;14.45;63.15;98745.31;5059112;28;20211;-67
2024/01/03 12:29:52;;;;;;;15.73;5.27;;;;;;;14.35;63.12;98755.59;5057526;28;20235;-67
2024/01/03 12:32:21;;;;;;;11.07;2.00;;;;;;;14.14;63.77;98766.59;5056337;28;20715;-66
2024/01/03 12:38:14;;;;;;;6.47;1.57;;;;;;;13.71;66.38;98764.50;5055419;28;20357;-69
2024/01/03 12:41:07;;;;;;;4.17;1.23;;;;;;;13.48;68.76;98764.13;5043324;28;20355;-67
2024/01/03 12:43:37;;;;;;;8.67;1.70;;;;;;;13.27;70.96;98745.75;5056006;28;20211;-67
2024/01/03 12:46:08;;;;;;;6.60;1.13;;;;;;;13.06;72.52;98755.56;5056242;28;20665;-67
2024/01/03 12:48:41;;;;;;;4.20;1.00;;;;;;;12.92;72.07;98753.09;5055727;28;20987;-69
2024/01/03 12:51:16;;;;;;;6.20;1.00;;;;;;;12.87;72.33;98732.44;4842168;28;109622;-70
2024/01/03 12:54:00;;;;;;;3.47;0.80;;;;;;;12.81;71.95;98726.09;4999831;28;20206;-68
2024/01/03 12:56:51;;;;;;;2.57;0.70;;;;;;;12.67;73.15;98742.22;5001780;28;20212;-68
2024/01/03 12:59:23;;;;;;;4.37;1.07;;;;;;;12.56;73.79;98733.03;5002737;28;20203;-69
2024/01/03 13:02:06;;;;;;;3.00;0.80;;;;;;;12.50;74.86;98738.31;5003493;28;20208;-71
2024/01/03 13:04:53;;;;;;;5.47;0.63;;;;;;;12.41;75.21;98741.16;5004249;28;20232;-69
2024/01/03 13:08:26;;;;;;;7.23;0.60;;;;;;;12.40;75.50;98736.88;5004286;28;20216;-69
2024/01/03 13:13:51;;;;;;;2.73;0.67;;;;;;;12.28;75.72;98714.59;4999169;28;20655;-69
2024/01/03 13:16:29;;;;;;;4.87;0.83;;;;;;;12.28;76.41;98719.91;5003357;28;20548;-69
2024/01/03 13:25:52;;;;;;;3.03;0.50;;;;;;;12.38;77.41;98728.31;5002284;28;20687;-68
2024/01/03 13:28:40;;;;;;;4.17;0.70;;;;;;;12.35;77.76;98711.94;5001235;28;20638;-67
2024/01/03 13:31:55;;;;;;;3.70;0.87;;;;;;;12.35;77.84;98710.09;4995653;28;21154;-67
2024/01/03 13:41:19;;;;;;;4.23;0.77;;;;;;;12.34;78.38;98747.50;5002064;28;20264;-70
2024/01/03 13:43:52;;;;;;;4.00;0.90;;;;;;;12.36;78.60;98735.66;4980565;28;20236;-67
2024/01/03 13:46:38;;;;;;;2.47;0.90;;;;;;;12.36;78.89;98706.41;5003349;28;20216;-70
2024/01/03 13:49:09;;;;;;;5.33;1.27;;;;;;;12.33;79.57;98712.13;5001876;28;20308;-67
2024/01/03 13:51:40;;;;;;;6.67;1.20;;;;;;;12.32;80.17;98718.47;5001891;28;20225;-67
2024/01/03 13:54:10;;;;;;;6.13;1.90;;;;;;;12.33;80.84;98713.97;4999391;28;20202;-67
2024/01/03 13:56:39;;;;;;;4.57;1.00;;;;;;;12.19;79.65;98707.00;5000633;28;20236;-70
2024/01/03 13:59:10;;;;;;;3.00;0.93;;;;;;;12.15;79.52;98697.78;5001951;28;20286;-69
2024/01/03 14:01:38;;;;;;;5.57;0.80;;;;;;;12.09;78.69;98688.78;4998437;28;20864;-66
2024/01/03 14:04:06;;;;;;;4.73;0.70;;;;;;;12.11;78.71;98689.41;5000599;28;20684;-69
2024/01/03 14:06:40;;;;;;;3.13;0.90;;;;;;;12.06;78.34;98689.19;5000924;28;20263;-68
2024/01/03 14:09:14;;;;;;;3.17;0.83;;;;;;;12.04;78.11;98693.88;4997652;28;20210;-67
2024/01/03 14:11:42;;;;;;;4.80;1.00;;;;;;;11.91;77.96;98686.69;4999002;28;20268;-68
2024/01/03 14:14:10;;;;;;;3.73;1.10;;;;;;;11.93;78.04;98674.03;4999343;28;20802;-67
2024/01/03 14:16:45;;;;;;;3.30;0.77;;;;;;;11.97;77.23;98674.44;4997837;28;20210;-69
2024/01/03 14:19:14;;;;;;;3.53;0.77;;;;;;;11.98;77.33;98676.06;4998526;28;20209;-68
2024/01/03 14:21:43;;;;;;;5.67;1.17;;;;;;;12.03;77.55;98678.97;5001098;28;20240;-68
2024/01/03 14:24:14;;;;;;;2.57;0.70;;;;;;;12.12;77.53;98666.31;5000545;28;20229;-69
2024/01/03 14:26:42;;;;;;;4.50;1.03;;;;;;;12.20;77.33;98674.91;5000436;28;20219;-70
2024/01/03 14:29:10;;;;;;;4.47;1.10;;;;;;;12.32;76.78;98673.28;4998566;28;20334;-66
2024/01/03 14:31:38;;;;;;;7.07;1.30;;;;;;;12.42;76.42;98663.06;4999939;28;20287;-67
2024/01/03 14:34:06;;;;;;;5.93;1.13;;;;;;;12.47;76.40;98659.00;4999965;28;20225;-69
2024/01/03 14:36:34;;;;;;;4.23;1.20;;;;;;;12.46;76.91;98670.66;5002343;28;20217;-66
2024/01/03 14:39:07;;;;;;;6.30;1.73;;;;;;;12.38;77.63;98656.53;4998086;28;20213;-65
2024/01/03 14:41:37;;;;;;;4.67;1.20;;;;;;;12.32;77.94;98654.69;5001005;28;20224;-67
2024/01/03 14:44:09;;;;;;;6.07;1.37;;;;;;;12.33;78.42;98652.84;4999825;28;20225;-66
2024/01/03 14:46:37;;;;;;;10.07;1.70;;;;;;;12.32;78.74;98651.19;4999604;28;20232;-66
2024/01/03 14:49:05;;;;;;;9.80;1.77;;;;;;;12.31;79.43;98661.00;5000907;28;20224;-67
2024/01/03 14:51:34;;;;;;;8.90;2.53;;;;;;;12.31;79.31;98649.59;5004339;28;20693;-65
2024/01/03 14:54:02;;;;;;;9.63;1.70;;;;;;;12.34;79.12;98655.31;5006663;28;20581;-66
2024/01/03 14:56:32;;;;;;;8.40;1.67;;;;;;;12.37;79.05;98646.94;5005719;28;20304;-67
2024/01/03 14:59:02;;;;;;;8.17;1.93;;;;;;;12.42;78.82;98652.44;5006560;28;20215;-67
2024/01/03 15:01:30;;;;;;;6.43;1.53;;;;;;;12.42;79.14;98647.13;5006612;28;20260;-65
2024/01/03 15:03:58;;;;;;;10.43;1.67;;;;;;;12.41;79.06;98640.16;5008224;28;20201;-67
2024/01/03 15:06:26;;;;;;;4.63;1.50;;;;;;;12.34;79.97;98641.19;5007240;28;20245;-68
2024/01/03 15:08:54;;;;;;;7.13;1.67;;;;;;;12.28;80.06;98632.22;5006201;28;20213;-67
2024/01/03 15:11:22;;;;;;;7.50;1.67;;;;;;;12.20;80.88;98627.09;5005059;28;20237;-68
2024/01/03 15:13:50;;;;;;;9.40;1.40;;;;;;;12.12;81.51;98621.16;5006461;28;20663;-66
2024/01/03 15:16:21;;;;;;;10.93;2.30;;;;;;;12.10;81.55;98610.72;5006706;28;20205;-68
2024/01/03 15:18:52;;;;;;;8.90;1.10;;;;;;;12.06;81.57;98604.16;5005095;28;20775;-67
2024/01/03 15:21:20;;;;;;;10.90;2.40;;;;;;;12.05;81.78;98608.66;5005639;28;20665;-67
2024/01/03 15:23:48;;;;;;;4.47;1.20;;;;;;;12.03;81.17;98602.75;5005123;28;20707;-67
2024/01/03 15:26:17;;;;;;;4.53;1.23;;;;;;;11.97;80.49;98598.22;5002217;28;20287;-67
2024/01/03 15:28:45;;;;;;;4.30;1.20;;;;;;;11.99;79.60;98604.16;5007348;28;20951;-69
2024/01/03 15:31:18;;;;;;;8.10;1.27;;;;;;;11.96;79.18;98603.78;5005181;28;20223;-66
2024/01/03 15:33:48;;;;;;;8.13;1.17;;;;;;;11.94;78.34;98596.00;5004805;28;21277;-67
2024/01/03 15:36:19;;;;;;;5.47;1.10;;;;;;;11.93;78.15;98602.31;5006216;28;20206;-67
2024/01/03 15:38:47;;;;;;;6.23;1.00;;;;;;;11.98;77.43;98612.34;5005765;28;20268;-70
2024/01/03 15:41:16;;;;;;;7.93;1.40;;;;;;;12.01;77.27;98617.25;5004041;28;20334;-69
2024/01/03 15:44:07;;;;;;;;;;;;;;;;;;;;;
2024/01/03 15:47:01;;;;;;;7.47;1.50;;;;;;;12.13;77.16;98625.44;5006595;28;20208;-68
2024/01/03 15:49:44;;;;;;;5.07;1.60;;;;;;;12.13;77.29;98628.94;5003872;28;20220;-68
2024/01/03 15:52:13;;;;;;;7.93;1.23;;;;;;;12.13;79.24;98622.78;5003605;28;20221;-67
2024/01/03 15:54:42;;;;;;;7.97;1.50;;;;;;;12.07;80.76;98621.75;5005624;28;20208;-68
2024/01/03 15:57:15;;;;;;;6.80;1.37;;;;;;;12.04;81.99;98617.69;5006636;28;20272;-68
2024/01/03 15:59:47;;;;;;;9.67;1.57;;;;;;;12.02;82.77;98614.41;5003853;28;20291;-67
2024/01/03 16:02:20;;;;;;;8.37;1.43;;;;;;;12.07;82.63;98606.63;5005124;28;20220;-67
2024/01/03 16:04:50;;;;;;;8.30;1.37;;;;;;;12.13;82.56;98601.53;5001938;28;20203;-68
2024/01/03 16:07:18;;;;;;;4.27;1.27;;;;;;;12.14;82.49;98606.63;5003004;28;20751;-67
2024/01/03 16:09:46;;;;;;;7.13;1.37;;;;;;;12.14;82.57;98601.31;5005391;28;20206;-68
2024/01/03 16:12:17;;;;;;;7.17;1.30;;;;;;;12.13;82.46;98583.75;4999848;28;20332;-66
2024/01/03 16:14:47;;;;;;;7.13;1.20;;;;;;;12.07;82.42;98576.59;5002966;28;21008;-68
2024/01/03 16:17:15;;;;;;;5.80;1.67;;;;;;;12.04;82.73;98563.72;5000439;28;20564;-67
2024/01/03 16:19:44;;;;;;;6.27;1.30;;;;;;;12.05;82.57;98560.03;5004030;28;20778;-67
2024/01/03 16:22:16;;;;;;;7.70;1.40;;;;;;;12.07;81.69;98589.88;5004474;28;20576;-68
2024/01/03 16:24:44;;;;;;;5.73;1.53;;;;;;;12.07;81.43;98558.00;5005232;28;20233;-67
2024/01/03 16:27:13;;;;;;;5.20;1.50;;;;;;;12.09;81.13;98552.47;5001671;28;20639;-67
2024/01/03 16:29:42;;;;;;;8.90;1.83;;;;;;;12.09;81.30;98561.28;5003182;28;20359;-67
2024/01/03 16:32:11;;;;;;;7.23;1.37;;;;;;;12.16;80.69;98561.25;5001716;28;20237;-68
2024/01/03 16:34:44;;;;;;;8.67;1.80;;;;;;;12.16;79.83;98609.91;5002237;28;20214;-67
2024/01/03 16:37:17;;;;;;;11.20;1.87;;;;;;;12.21;80.74;98622.59;5004266;28;20564;-68
2024/01/03 16:39:46;;;;;;;10.40;1.97;;;;;;;12.18;82.98;98605.22;5003593;28;20292;-67
2024/01/03 16:42:15;;;;;;;5.77;1.30;;;;;;;12.16;82.71;98598.47;5003009;28;21019;-67
2024/01/03 16:44:44;;;;;;;4.47;1.00;;;;;;;12.15;80.32;98559.63;5001264;28;20218;-68
2024/01/03 16:47:12;;;;;;;6.93;0.97;;;;;;;12.21;79.88;98580.91;5003485;28;20312;-68
2024/01/03 16:49:44;;;;;;;8.03;1.20;;;;;;;12.23;80.36;98568.22;5003641;28;20209;-67
2024/01/03 16:52:12;;;;;;;5.43;1.57;;;;;;;12.22;80.36;98568.44;5004551;28;20244;-69
2024/01/03 16:54:42;;;;;;;10.53;1.60;;;;;;;12.16;80.79;98567.41;5003905;28;20205;-66